createdAt,value
2022-10-14T00:05:59.500Z,97020.94
2022-10-14T00:16:27.704Z,97022.88
2022-10-14T00:27:08.735Z,97020.72
2022-10-14T00:32:00.441Z,97014.41
2022-10-14T00:36:52.117Z,97016.72
2022-10-14T00:41:44.889Z,97008.50
2022-10-14T00:46:48.291Z,97003.72
2022-10-14T00:51:44.725Z,97012.31
2022-10-14T00:56:37.388Z,97012.81
2022-10-14T01:01:29.141Z,97017.50
2022-10-14T01:06:52.846Z,97008.94
2022-10-14T01:18:01.171Z,96991.44
2022-10-14T01:23:35.250Z,96985.34
2022-10-14T01:28:55.500Z,96975.88
2022-10-14T01:33:55.473Z,96972.34
2022-10-14T01:39:10.020Z,96972.91
2022-10-14T01:54:53.592Z,96957.44
2022-10-14T01:59:47.098Z,96940.25
2022-10-14T02:04:39.701Z,96951.00
2022-10-14T02:15:57.208Z,96941.34
2022-10-14T02:21:08.748Z,96931.59
2022-10-14T02:26:03.833Z,96929.06
2022-10-14T02:31:06.903Z,96924.63
2022-10-14T02:36:01.018Z,96931.50
2022-10-14T02:40:53.640Z,96932.69
2022-10-14T02:50:51.045Z,96919.03
2022-10-14T02:55:42.723Z,96900.47
2022-10-14T03:00:34.747Z,96895.69
2022-10-14T03:05:26.595Z,96884.25
2022-10-14T03:10:18.868Z,96886.22
2022-10-14T03:15:11.273Z,96874.91
2022-10-14T03:20:04.986Z,96867.59
2022-10-14T03:24:56.651Z,96872.69
2022-10-14T03:29:48.339Z,96881.94
2022-10-14T03:34:42.220Z,96869.69
2022-10-14T03:39:34.238Z,96854.91
2022-10-14T03:44:25.938Z,96862.03
2022-10-14T03:49:43.151Z,96851.94
2022-10-14T03:54:34.833Z,96842.22
2022-10-14T03:59:26.499Z,96849.31
2022-10-14T20:15:27.804Z,96434.56
